الصفحة الرئيسية
METAR-TAF:

METAR-TAF

مطار :

Ubon Ratchathani, تايلاند

دائرة عرض: 15-15N, خط طول: 104-52E, ارتفاع: 123 متر

مراقبة الطقس الحالي

تاريخ ووقت الإصدار 32 دقيقة قبل الساعة 00:00UTC
ريح 5 عقدة من الجنوب/الجنوب الشرقي, الاتجاه يتراوح بين الشرق و الجنوب/الجنوب الغربي
درجة الحرارة 30°درجة مئوية
الرطوبة 66%
ضغط 1007 hPa
الرؤية: 9000 متر

METAR: VTUU 190000Z 16005KT 100V210 9000 NSC 30/23 Q1007 NOSIG

زمن: 07:32 (00:32 UTC)

توقعات

تاريخ ووقت الإصدار 1ساعة و 32 دقيقة قبل الساعة 23:00UTC
التوقعات صالحة من19 الساعة 00 UTC إلى 19 الساعة 24 UTC
ريح 5 عقدة من الجنوب/الجنوب الغربي
الرؤية: 9000 متر
غيوم قليلة على ارتفاع 3500 قدم

TAF: VTUU 182300Z 1900/1924 20005KT 9000 FEW035

أرصاد الطقس والتوقعات من أكثر من 4000 مطار (تقارير الطقس للمطار METAR والتنبؤ بالطقس بالمطارTAF).

المحطات المتاحة هي النقط الصفراء والحمراء على الخريطة.

حرك المؤشر فوق النقطة لمعرفة اسم المحطة.

ثم انقر لمعرفة أرصاد وتوقعات الطقس.

لتغيير الخارطة: اضغط على الأزرار الخضراء مع رمز الصليب الأسود للتكبير. على الزر الأخضر مع شرطة للتصغير، أو على الأسهم الخضراء للخرائط المجاورة.


METAR-TAF: